CW3510 Weather Reports


Display with metric or nautical units.
time (UTC)temp
F
wind
direction
speed
MPH
gust
MPH
rain 1hr
in
rain 24hr
in
rain mn
in
humidity
%
barometer
mb
20190419121509 66 193 0.0 6.0 0.00 0.00 0.00 79 1003.5
20190419120509 66 203 3.0 6.0 0.00 0.00 0.00 79 1003.5
20190419115509 66 160 0.0 4.0 0.00 0.00 0.00 79 1003.4
20190419114509 66 224 0.0 4.0 0.00 0.00 0.00 78 1003.3
20190419113509 66 199 0.0 7.0 0.00 0.00 0.00 78 1003.3
20190419112509 65 164 4.0 5.0 0.00 0.00 0.00 78 1003.0
20190419110509 65 166 1.0 11.0 0.00 0.00 0.00 79 1003.0
20190419105509 64 204 5.0 7.0 0.00 0.00 0.00 79 1003.1
20190419103509 64 161 0.0 5.0 0.00 0.00 0.00 78 1003.1
20190419102509 64 207 2.0 11.0 0.00 0.00 0.00 78 1003.0
20190419101509 64 162 1.0 8.0 0.00 0.00 0.00 78 1003.0
20190419095509 64 174 4.0 8.0 0.00 0.00 0.00 77 1003.0
20190419094509 64 167 2.0 8.0 0.00 0.00 0.00 76 1003.0
20190419093509 64 225 8.0 9.0 0.00 0.00 0.00 77 1003.0
20190419092509 64 214 4.0 8.0 0.00 0.00 0.00 76 1003.1
20190419090509 64 233 3.0 10.0 0.00 0.00 0.00 77 1003.1
20190419085509 64 185 6.0 10.0 0.00 0.00 0.00 77 1003.3
20190419081509 64 160 0.0 10.0 0.00 0.00 0.00 78 1003.5
20190419080509 64 137 6.0 9.0 0.00 0.00 0.00 78 1003.5
20190419072509 64 226 7.0 12.0 0.00 0.00 0.00 79 1003.5
20190419070509 64 230 2.0 8.0 0.00 0.00 0.00 78 1003.6
20190419065509 64 205 10.0 17.0 0.00 0.00 0.00 78 1003.7
20190419064509 64 200 7.0 10.0 0.00 0.00 0.00 78 1004.0
20190419063509 64 174 2.0 8.0 0.00 0.00 0.00 78 1004.0
20190419061509 64 165 3.0 10.0 0.00 0.00 0.00 77 1004.1
20190419055509 64 221 5.0 10.0 0.00 0.00 0.00 77 1004.3
20190419053509 65 182 0.0 7.0 0.00 0.00 0.00 76 1004.5
20190419052509 65 172 3.0 8.0 0.00 0.00 0.00 76 1004.5
20190419050524 65 221 0.0 9.0 0.00 0.00 0.00 76 1004.7
20190419044509 65 176 4.0 9.0 0.00 0.00 0.00 75 1004.7
20190419041509 66 162 0.0 8.0 0.00 0.00 0.00 74 1005.0
20190419040514 66 207 0.0 6.0 0.00 0.00 0.00 74 1005.0
20190419032509 66 198 0.0 5.0 0.00 0.00 0.00 70 1005.2
20190419025509 67 161 0.0 8.0 0.00 0.00 0.00 65 1005.8
20190419024508 67 176 5.0 7.0 0.00 0.00 0.00 64 1005.9
20190419022508 68 144 0.0 6.0 0.00 0.00 0.00 61 1005.9
20190419020508 68 180 5.0 5.0 0.00 0.00 0.00 63 1005.8
20190419015508 68 160 0.0 6.0 0.00 0.00 0.00 62 1005.8
20190419014508 69 135 0.0 5.0 0.00 0.00 0.00 62 1005.7
20190419013509 69 195 0.0 6.0 0.00 0.00 0.00 62 1005.7
20190419012508 70 148 0.0 10.0 0.00 0.00 0.00 61 1005.5
20190419011509 70 212 0.0 5.0 0.00 0.00 0.00 60 1005.3
20190419004509 71 201 0.0 5.0 0.00 0.00 0.00 58 1005.2
20190419003509 71 146 5.0 6.0 0.00 0.00 0.00 58 1005.2
20190419001508 72 174 0.0 4.0 0.00 0.00 0.00 57 1005.2
20190419000514 72 161 0.0 5.0 0.00 0.00 0.00 56 1005.2
20190418235508 73 120 0.0 4.0 0.00 0.00 0.00 56 1005.0
20190418234508 73 174 4.0 8.0 0.00 0.00 0.00 55 1005.0
20190418233508 74 202 0.0 5.0 0.00 0.00 0.00 54 1005.0
20190418225508 76 172 0.0 3.0 0.00 0.00 0.00 50 1005.1
20190418224508 76 207 0.0 6.0 0.00 0.00 0.00 50 1005.3
20190418223508 76 238 0.0 7.0 0.00 0.00 0.00 50 1005.3
20190418220508 77 223 0.0 3.0 0.00 0.00 0.00 51 1005.5
20190418214507 76 224 2.0 8.0 0.00 0.00 0.00 51 1005.7
20190418213507 77 149 1.0 9.0 0.00 0.00 0.00 49 1005.7
20190418212508 77 159 0.0 10.0 0.00 0.00 0.00 49 1005.9
20190418211507 77 231 6.0 7.0 0.00 0.00 0.00 51 1006.3
20190418205507 77 158 0.0 9.0 0.00 0.00 0.00 50 1006.3
20190418203507 76 212 4.0 9.0 0.00 0.00 0.00 53 1006.3
20190418201507 76 193 4.0 10.0 0.00 0.00 0.00 53 1006.7
20190418200507 76 200 0.0 8.0 0.00 0.00 0.00 52 1006.7
20190418193507 76 188 5.0 8.0 0.00 0.00 0.00 53 1007.4
20190418192506 75 231 1.0 10.0 0.00 0.00 0.00 54 1007.4
20190418190507 75 160 2.0 8.0 0.00 0.00 0.00 54 1007.6
20190418185506 76 225 3.0 9.0 0.00 0.00 0.00 51 1007.9
20190418184506 76 158 5.0 10.0 0.00 0.00 0.00 51 1007.9
20190418183506 76 165 1.0 10.0 0.00 0.00 0.00 50 1007.9
20190418182506 77 158 9.0 12.0 0.00 0.00 0.00 48 1008.1
20190418180506 75 231 2.0 10.0 0.00 0.00 0.00 52 1008.5
20190418175506 75 229 6.0 8.0 0.00 0.00 0.00 50 1008.8
20190418174506 75 174 0.0 8.0 0.00 0.00 0.00 52 1008.8
20190418173506 74 153 0.0 5.0 0.00 0.00 0.00 55 1008.8
20190418170506 72 65 0.0 6.0 0.00 0.00 0.00 60 1009.1
20190418165505 71 165 0.0 6.0 0.00 0.00 0.00 62 1009.4
20190418164505 70 101 0.0 10.0 0.00 0.00 0.00 65 1009.7
20190418161505 67 58 0.0 6.0 0.00 0.00 0.00 69 1010.6
20190418160505 66 85 4.0 6.0 0.00 0.00 0.00 71 1010.6
20190418154505 64 99 0.0 5.0 0.00 0.00 0.00 73 1011.2
20190418153505 62 79 6.0 9.0 0.00 0.00 0.00 75 1011.2
20190418150504 60 86 7.0 9.0 0.00 0.00 0.00 76 1011.6
20190418145504 60 100 0.0 8.0 0.00 0.00 0.00 77 1011.5
20190418144504 59 89 4.0 5.0 0.00 0.00 0.00 78 1011.8
20190418143504 58 82 3.0 5.0 0.00 0.00 0.00 78 1011.8
20190418142504 58 75 0.0 5.0 0.00 0.00 0.00 78 1011.8
20190418141504 57 38 10.0 10.0 0.00 0.00 0.00 78 1012.1
20190418140505 57 88 2.0 10.0 0.00 0.00 0.00 77 1012.1
20190418133504 56 92 8.0 8.0 0.00 0.00 0.00 77 1012.4
20190418131504 55 48 0.0 7.0 0.00 0.00 0.00 76 1012.9
20190418130503 55 117 5.0 10.0 0.00 0.00 0.00 76 1012.9
20190418125504 55 93 6.0 7.0 0.00 0.00 0.00 75 1013.3